Time;durP1;ratioP1;P1;durP2;ratioP2;P2;SDS_P1;SDS_P2;PMS_P1;PMS_P2;Temp;Humidity;BMP_temperature;BMP_pressure;BME280_temperature;BME280_humidity;BME280_pressure;Samples;Min_cycle;Max_cycle;Signal;HPM_P1;HPM_P2
2023/04/10 00:00:32;;;;;;;4.07;3.70;;;;;;;-143.84;54.68;45151.91;5129516;27;20481;-71
2023/04/10 00:03:00;;;;;;;5.93;4.23;;;;;;;-143.84;54.33;45163.31;5129819;27;20193;-71
2023/04/10 00:05:27;;;;;;;3.90;3.60;;;;;;;-143.84;54.17;45155.69;5129822;27;20505;-72
2023/04/10 00:07:56;;;;;;;3.53;3.23;;;;;;;-143.84;53.76;45163.31;5129896;27;20843;-72
2023/04/10 00:10:25;;;;;;;4.40;4.00;;;;;;;-143.84;53.98;45157.59;5130222;27;20644;-72
2023/04/10 00:12:52;;;;;;;3.67;3.37;;;;;;;-143.84;53.61;45180.47;5130030;27;20435;-72
2023/04/10 00:15:20;;;;;;;4.07;3.77;;;;;;;-143.84;54.10;45153.81;5129213;27;20496;-72
2023/04/10 00:17:49;;;;;;;3.17;2.90;;;;;;;-143.84;53.52;45157.59;5129534;27;21188;-72
2023/04/10 00:20:16;;;;;;;3.83;3.43;;;;;;;-143.84;53.80;45157.59;5129608;27;21067;-72
2023/04/10 00:22:44;;;;;;;3.77;3.47;;;;;;;-143.84;53.68;45188.06;5129737;27;20438;-71
2023/04/10 00:25:12;;;;;;;3.92;3.53;;;;;;;-143.84;53.34;45155.69;5129650;27;20511;-71
2023/04/10 00:27:39;;;;;;;4.10;3.40;;;;;;;-143.84;53.32;45159.50;5129826;27;20230;-72
2023/04/10 00:30:08;;;;;;;3.57;3.33;;;;;;;-143.84;52.55;45170.94;5129941;27;20443;-72
2023/04/10 00:32:35;;;;;;;4.70;3.60;;;;;;;-143.84;52.77;45169.03;5133559;27;20446;-72
2023/04/10 00:35:02;;;;;;;4.10;3.80;;;;;;;-143.84;52.23;45153.81;5133700;27;20432;-72
2023/04/10 00:37:29;;;;;;;4.10;3.70;;;;;;;-143.84;51.94;45138.56;5133585;27;20434;-72
2023/04/10 00:39:56;;;;;;;4.43;4.03;;;;;;;-143.84;52.03;45159.50;5132469;27;20558;-71
2023/04/10 00:42:25;;;;;;;3.75;3.55;;;;;;;-143.84;51.62;45151.91;5132808;27;20200;-71
2023/04/10 00:44:53;;;;;;;3.33;3.13;;;;;;;-143.84;51.16;45155.69;5132918;27;20197;-71
2023/04/10 00:47:20;;;;;;;3.83;3.60;;;;;;;-143.84;51.06;45132.84;5133679;27;20836;-71
2023/04/10 00:49:47;;;;;;;4.13;3.83;;;;;;;-143.84;51.14;45159.50;5133390;27;20444;-71
2023/04/10 00:52:15;;;;;;;10.10;4.13;;;;;;;-143.84;51.43;45155.69;5133428;27;20431;-72
2023/04/10 00:54:42;;;;;;;3.17;2.90;;;;;;;-143.84;51.27;45174.75;5133305;27;20438;-72
2023/04/10 00:57:09;;;;;;;4.70;4.10;;;;;;;-143.84;51.75;45161.41;5133099;27;20445;-71
2023/04/10 00:59:38;;;;;;;6.20;4.00;;;;;;;-143.84;51.99;45153.81;5133114;27;20479;-71
2023/04/10 01:02:05;;;;;;;3.80;3.50;;;;;;;-143.84;51.99;45155.69;5133303;27;20450;-71
2023/04/10 01:04:33;;;;;;;4.93;3.70;;;;;;;-143.84;51.84;45169.03;5133270;27;20442;-71
2023/04/10 01:07:10;;;;;;;4.17;3.77;;;;;;;-143.84;51.85;45140.47;5133084;27;20434;-71
2023/04/10 01:09:44;;;;;;;4.33;3.93;;;;;;;-143.84;51.75;45167.13;5133566;27;20457;-71
2023/04/10 01:12:34;;;;;;;4.30;4.00;;;;;;;-143.84;51.84;45174.75;5133312;27;20441;-72
2023/04/10 01:15:07;;;;;;;4.67;4.37;;;;;;;-143.84;51.56;45165.22;5132804;27;20253;-72
2023/04/10 01:17:47;;;;;;;3.60;3.40;;;;;;;-143.84;51.56;45151.91;5133009;27;20442;-72
2023/04/10 01:20:19;;;;;;;5.70;3.43;;;;;;;-143.84;50.93;45142.38;5132784;27;20217;-72
2023/04/10 01:23:05;;;;;;;3.15;2.95;;;;;;;-143.84;51.40;45167.13;5132994;27;20438;-72
2023/04/10 01:25:41;;;;;;;4.40;4.00;;;;;;;-143.84;50.76;45132.84;5132943;27;20201;-72
2023/04/10 01:28:24;;;;;;;4.17;3.60;;;;;;;-143.84;50.93;45155.69;5132177;27;20858;-73
2023/04/10 01:30:57;;;;;;;3.90;3.60;;;;;;;-143.84;51.30;45170.94;5132112;27;20817;-72
2023/04/10 01:33:32;;;;;;;4.20;3.90;;;;;;;-143.84;51.39;45155.69;5131931;27;20492;-72
2023/04/10 01:36:05;;;;;;;4.20;3.80;;;;;;;-143.84;51.31;45125.22;5132426;27;20970;-72
2023/04/10 01:38:34;;;;;;;4.30;3.90;;;;;;;-143.84;51.80;45150.00;5132192;27;20446;-72
2023/04/10 01:41:02;;;;;;;5.40;3.90;;;;;;;-143.84;51.83;45169.03;5132228;27;20486;-72
2023/04/10 01:43:31;;;;;;;4.60;3.47;;;;;;;-143.84;51.94;45189.97;5130968;27;20426;-71
2023/04/10 01:46:01;;;;;;;3.77;3.47;;;;;;;-143.84;51.74;45148.09;5131457;27;20450;-71
2023/04/10 01:48:28;;;;;;;3.60;3.30;;;;;;;-143.84;52.28;45170.94;5132329;27;20447;-71
2023/04/10 01:50:56;;;;;;;4.50;4.10;;;;;;;-143.84;52.42;45163.31;5132035;27;20492;-72
2023/04/10 01:53:24;;;;;;;4.40;4.00;;;;;;;-143.84;52.67;45169.03;5132546;27;20503;-72
2023/04/10 01:55:53;;;;;;;3.58;3.28;;;;;;;-143.84;52.57;45150.00;5132145;27;20519;-72
2023/04/10 01:58:20;;;;;;;4.23;3.93;;;;;;;-143.84;53.41;45155.69;5131875;27;20276;-71
2023/04/10 02:00:47;;;;;;;5.30;4.80;;;;;;;-143.84;55.05;45170.94;5132018;27;20489;-71
2023/04/10 02:03:16;;;;;;;6.33;4.70;;;;;;;-143.84;55.54;45148.09;5132063;27;20856;-71
2023/04/10 02:05:55;;;;;;;4.53;4.10;;;;;;;-143.84;55.74;45150.00;5132080;27;20499;-72
2023/04/10 02:08:31;;;;;;;4.43;3.97;;;;;;;-143.84;56.13;45165.22;5131855;27;20948;-71
2023/04/10 02:11:04;;;;;;;4.80;4.43;;;;;;;-143.84;56.06;45155.69;5131747;27;20507;-71
2023/04/10 02:13:35;;;;;;;5.53;5.13;;;;;;;-143.84;56.14;45169.03;5131776;27;20442;-71
2023/04/10 02:16:06;;;;;;;5.03;4.53;;;;;;;-143.84;56.00;45170.94;5131914;27;20549;-72
2023/04/10 02:18:36;;;;;;;4.22;3.92;;;;;;;-143.84;56.28;45144.28;5131864;27;20985;-72
2023/04/10 02:21:04;;;;;;;5.87;5.27;;;;;;;-143.84;56.43;45150.00;5131639;27;20218;-71
2023/04/10 02:23:31;;;;;;;5.50;5.00;;;;;;;-143.84;56.40;45153.81;5131737;27;20449;-72
2023/04/10 02:25:58;;;;;;;4.30;4.00;;;;;;;-143.84;56.71;45169.03;5131514;27;21257;-72
2023/04/10 02:28:26;;;;;;;4.77;4.37;;;;;;;-143.84;56.85;45150.00;5131483;27;20502;-71
2023/04/10 02:30:53;;;;;;;4.60;4.20;;;;;;;-143.84;57.07;45172.84;5131368;27;20518;-71
2023/04/10 02:33:20;;;;;;;5.40;4.90;;;;;;;-143.84;57.44;45155.69;5131621;27;20443;-71
2023/04/10 02:35:48;;;;;;;4.90;4.60;;;;;;;-143.84;57.49;45180.47;5131391;27;20916;-72
2023/04/10 02:38:16;;;;;;;5.97;5.30;;;;;;;-143.84;57.46;45159.50;5131317;27;20829;-72
2023/04/10 02:40:43;;;;;;;5.72;5.22;;;;;;;-143.84;57.78;45167.13;5130817;27;20551;-72
2023/04/10 02:43:10;;;;;;;5.10;4.60;;;;;;;-143.84;57.85;45188.06;5131372;27;20727;-72
2023/04/10 02:45:37;;;;;;;5.90;5.10;;;;;;;-143.84;58.36;45155.69;5131322;27;20455;-73
2023/04/10 02:48:06;;;;;;;5.70;5.20;;;;;;;-143.84;58.39;45167.13;5130484;27;20445;-73
2023/04/10 02:50:33;;;;;;;5.60;5.10;;;;;;;-143.84;59.00;45163.31;5129830;27;20442;-72
2023/04/10 02:53:01;;;;;;;5.73;4.90;;;;;;;-143.84;59.00;45151.91;5130261;27;20439;-72
2023/04/10 02:55:28;;;;;;;6.17;5.67;;;;;;;-143.84;60.31;45170.94;5130072;27;21044;-72
2023/04/10 02:57:56;;;;;;;6.10;5.10;;;;;;;-143.84;60.55;45161.41;5130605;27;20436;-72
2023/04/10 03:00:23;;;;;;;5.90;5.30;;;;;;;-143.84;60.71;45178.56;5130114;27;20535;-71
2023/04/10 03:02:52;;;;;;;7.30;5.40;;;;;;;-143.84;61.92;45172.84;5130774;27;20439;-71
2023/04/10 03:05:19;;;;;;;5.90;5.37;;;;;;;-143.84;61.75;45148.09;5130767;27;20449;-71
2023/04/10 03:07:46;;;;;;;6.30;5.70;;;;;;;-143.84;61.98;45163.31;5130555;27;20503;-71
2023/04/10 03:10:15;;;;;;;5.80;5.07;;;;;;;-143.84;62.59;45193.78;5130296;27;21008;-71
2023/04/10 03:12:42;;;;;;;7.60;6.20;;;;;;;-143.84;63.10;45184.25;5130646;27;20202;-71
2023/04/10 03:15:10;;;;;;;9.90;6.57;;;;;;;-143.84;63.22;45146.19;5130489;27;20438;-71
2023/04/10 03:17:37;;;;;;;8.73;6.90;;;;;;;-143.84;63.48;45176.66;5129919;27;20435;-72
2023/04/10 03:20:04;;;;;;;7.50;6.40;;;;;;;-143.84;63.81;45132.84;5129649;27;20989;-72
2023/04/10 03:22:32;;;;;;;6.97;6.37;;;;;;;-143.84;63.55;45157.59;5129784;27;20458;-71
2023/04/10 03:24:59;;;;;;;6.80;6.10;;;;;;;-143.84;64.28;45150.00;5130313;27;20438;-72
2023/04/10 03:27:27;;;;;;;7.03;6.33;;;;;;;-143.84;64.17;45150.00;5130364;27;20198;-72
2023/04/10 03:29:55;;;;;;;8.50;7.37;;;;;;;-143.84;64.62;45159.50;5130016;27;20422;-72
2023/04/10 03:32:22;;;;;;;7.57;6.77;;;;;;;-143.84;64.76;45159.50;5129978;27;20989;-68
2023/04/10 03:34:49;;;;;;;7.50;6.80;;;;;;;-143.84;65.41;45148.09;5129636;27;20594;-67
2023/04/10 03:37:16;;;;;;;7.07;6.40;;;;;;;-143.84;65.29;45155.69;5129402;27;20862;-68
2023/04/10 03:39:43;;;;;;;12.65;7.65;;;;;;;-143.84;65.52;45174.75;5128939;27;20474;-70
2023/04/10 03:42:10;;;;;;;7.70;6.40;;;;;;;-143.84;64.87;45146.19;5130118;27;20538;-70
2023/04/10 03:44:39;;;;;;;8.40;7.43;;;;;;;-143.84;65.34;45144.28;5130128;27;20491;-70
2023/04/10 03:47:06;;;;;;;6.70;6.10;;;;;;;-143.84;65.50;45163.31;5130430;27;20561;-70
2023/04/10 03:49:33;;;;;;;7.90;7.10;;;;;;;-143.84;65.91;45155.69;5129995;27;20481;-70
2023/04/10 03:52:00;;;;;;;9.17;7.40;;;;;;;-143.84;66.13;45153.81;5130532;27;20490;-68
2023/04/10 03:54:27;;;;;;;13.07;7.53;;;;;;;-143.84;66.61;45167.13;5129986;27;20448;-68
2023/04/10 03:56:55;;;;;;;8.57;7.32;;;;;;;-143.84;66.90;45165.22;5130275;27;20441;-68
2023/04/10 03:59:22;;;;;;;8.07;7.27;;;;;;;-143.84;67.30;45193.78;5129827;27;20201;-67
2023/04/10 04:01:51;;;;;;;8.13;7.20;;;;;;;-143.84;67.47;45148.09;5129901;27;20882;-67
2023/04/10 04:04:18;;;;;;;8.32;6.75;;;;;;;-143.84;67.15;45155.69;5129817;27;20450;-70
2023/04/10 04:06:46;;;;;;;6.82;6.13;;;;;;;-143.84;67.08;45144.28;5129312;27;20196;-70
2023/04/10 04:09:13;;;;;;;8.90;7.93;;;;;;;-143.84;67.50;45153.81;5129399;27;20266;-70
2023/04/10 04:11:40;;;;;;;9.33;7.40;;;;;;;-143.84;67.59;45193.78;5129499;27;20450;-70
2023/04/10 04:14:10;;;;;;;11.83;8.40;;;;;;;-143.84;67.81;45165.22;5129652;27;20446;-70
2023/04/10 04:16:37;;;;;;;8.17;6.67;;;;;;;-143.84;67.75;45150.00;5130127;27;20431;-70
2023/04/10 04:19:05;;;;;;;9.37;7.93;;;;;;;-143.84;68.46;45167.13;5129727;27;20438;-70
2023/04/10 04:21:32;;;;;;;10.10;7.97;;;;;;;-143.84;67.93;45123.34;5129355;27;20579;-70
2023/04/10 04:23:59;;;;;;;8.13;6.83;;;;;;;-143.84;67.92;45159.50;5129876;27;20201;-68
2023/04/10 04:26:26;;;;;;;9.63;7.43;;;;;;;-143.84;67.76;45165.22;5129604;27;20438;-68
2023/04/10 04:28:54;;;;;;;8.00;6.50;;;;;;;-143.84;67.51;45140.47;5129530;27;20837;-68
2023/04/10 04:31:21;;;;;;;8.83;6.97;;;;;;;-143.84;67.72;45174.75;5129598;27;20441;-67
2023/04/10 04:33:48;;;;;;;12.63;7.25;;;;;;;-143.84;67.60;45136.66;5129421;27;20442;-68
2023/04/10 04:36:17;;;;;;;8.40;7.30;;;;;;;-143.84;67.50;45140.47;5129760;27;20197;-68
2023/04/10 04:38:44;;;;;;;10.93;7.40;;;;;;;-143.84;67.15;45151.91;5129781;27;20205;-67
2023/04/10 04:41:11;;;;;;;7.90;6.40;;;;;;;-143.84;67.16;45146.19;5129022;27;20526;-67
2023/04/10 04:43:38;;;;;;;7.65;6.85;;;;;;;-143.84;67.40;45163.31;5129565;27;20503;-68
2023/04/10 04:46:05;;;;;;;8.43;7.13;;;;;;;-143.84;67.04;45157.59;5129424;27;20201;-68
2023/04/10 04:48:34;;;;;;;9.27;7.40;;;;;;;-143.84;66.84;45165.22;5129427;27;20438;-68
2023/04/10 04:51:01;;;;;;;8.17;7.37;;;;;;;-143.84;66.63;45142.38;5129753;27;20434;-68
2023/04/10 04:53:30;;;;;;;9.87;7.17;;;;;;;-143.84;66.61;45150.00;5129637;27;20434;-68
2023/04/10 04:55:57;;;;;;;11.97;7.23;;;;;;;-143.84;66.56;45186.16;5129212;27;20443;-68
2023/04/10 04:58:24;;;;;;;10.20;7.23;;;;;;;-143.84;66.79;45142.38;5129453;27;20926;-68
2023/04/10 05:00:52;;;;;;;8.27;7.32;;;;;;;-143.84;66.62;45169.03;5128483;27;21018;-68
2023/04/10 05:03:19;;;;;;;12.00;8.20;;;;;;;-143.84;66.46;45155.69;5128346;27;20189;-68
2023/04/10 05:05:46;;;;;;;7.78;7.05;;;;;;;-143.84;65.75;45134.75;5128484;27;20502;-68
2023/04/10 05:08:13;;;;;;;13.60;7.70;;;;;;;-143.84;65.87;45167.13;5128595;27;20625;-68
2023/04/10 05:10:42;;;;;;;9.20;7.83;;;;;;;-143.84;65.74;45161.41;5128665;27;20440;-68
2023/04/10 05:13:09;;;;;;;11.00;7.60;;;;;;;-143.84;65.40;45117.63;5129437;27;20450;-69
2023/04/10 05:15:36;;;;;;;10.07;7.97;;;;;;;-143.84;64.89;45132.84;5129357;27;20430;-68
2023/04/10 05:18:03;;;;;;;12.03;7.97;;;;;;;-143.84;64.74;45155.69;5130992;27;20432;-68
2023/04/10 05:20:30;;;;;;;12.30;8.50;;;;;;;-143.84;64.68;45163.31;5132934;27;20479;-68
2023/04/10 05:22:58;;;;;;;12.05;9.63;;;;;;;-143.84;64.39;45136.66;5132664;27;21204;-68
2023/04/10 05:25:25;;;;;;;9.97;8.13;;;;;;;-143.84;64.28;45167.13;5131969;27;20202;-69
2023/04/10 05:27:54;;;;;;;10.70;8.20;;;;;;;-143.84;64.03;45146.19;5132142;27;20442;-68
2023/04/10 05:30:21;;;;;;;11.77;9.67;;;;;;;-143.84;64.07;45123.34;5132425;27;20448;-68
2023/04/10 05:32:48;;;;;;;11.73;8.63;;;;;;;-143.84;64.00;45142.38;5132523;27;20475;-68
2023/04/10 05:35:15;;;;;;;10.40;9.23;;;;;;;-143.84;64.24;45163.31;5132758;27;21026;-68
2023/04/10 05:37:42;;;;;;;10.83;8.27;;;;;;;-143.84;63.75;45129.03;5132814;27;21106;-68
2023/04/10 05:40:10;;;;;;;11.23;8.50;;;;;;;-143.84;63.40;45140.47;5132033;27;20546;-68
2023/04/10 05:42:37;;;;;;;10.65;8.63;;;;;;;-143.84;63.59;45136.66;5132634;27;20785;-68
2023/04/10 05:45:07;;;;;;;19.65;8.45;;;;;;;-143.84;63.44;45148.09;5132461;27;20206;-68
2023/04/10 05:47:34;;;;;;;10.70;8.70;;;;;;;-143.84;62.95;45144.28;5132418;27;20189;-68
2023/04/10 05:50:01;;;;;;;11.27;8.87;;;;;;;-143.84;62.16;45157.59;5132264;27;20446;-68
2023/04/10 05:52:28;;;;;;;9.70;8.67;;;;;;;-143.84;62.15;45153.81;5132126;27;20515;-68
2023/04/10 05:54:56;;;;;;;15.17;9.17;;;;;;;-143.84;62.04;45167.13;5132268;27;20493;-68
2023/04/10 05:57:23;;;;;;;10.48;8.82;;;;;;;-143.84;61.69;45140.47;5132247;27;20444;-68
2023/04/10 05:59:50;;;;;;;13.30;9.53;;;;;;;-143.84;61.81;45146.19;5132120;27;20205;-68
2023/04/10 06:02:20;;;;;;;12.20;9.60;;;;;;;-143.84;62.34;45123.34;5132086;27;20477;-68
2023/04/10 06:04:47;;;;;;;17.40;8.43;;;;;;;-143.84;61.73;45172.84;5132122;27;20742;-68
2023/04/10 06:07:14;;;;;;;11.57;8.73;;;;;;;-143.84;61.50;45151.91;5131915;27;20427;-69
2023/04/10 06:09:41;;;;;;;18.33;9.37;;;;;;;-143.84;61.81;45129.03;5132111;27;20434;-68
2023/04/10 06:12:09;;;;;;;10.67;9.57;;;;;;;-143.84;61.21;45151.91;5131997;27;20422;-68
2023/04/10 06:14:36;;;;;;;12.45;9.70;;;;;;;-143.84;61.27;45186.16;5131912;27;20442;-68
2023/04/10 06:17:03;;;;;;;10.93;8.77;;;;;;;-143.84;60.52;45165.22;5131946;27;20197;-69
2023/04/10 06:19:31;;;;;;;11.90;9.70;;;;;;;-143.84;60.48;45153.81;5131883;27;20431;-68
2023/04/10 06:21:59;;;;;;;12.63;10.27;;;;;;;-143.84;59.87;45169.03;5132006;27;20482;-68
2023/04/10 06:24:26;;;;;;;10.87;9.77;;;;;;;-143.84;60.21;45144.28;5131677;27;20846;-69
2023/04/10 06:26:53;;;;;;;11.00;9.43;;;;;;;-143.84;59.67;45140.47;5131874;27;20834;-69
2023/04/10 06:29:20;;;;;;;12.60;9.40;;;;;;;-143.84;58.87;45132.84;5131087;27;20538;-69
2023/04/10 06:31:48;;;;;;;13.82;8.73;;;;;;;-143.84;58.29;45136.66;5131510;27;20446;-68
2023/04/10 06:34:15;;;;;;;12.37;9.60;;;;;;;-143.84;58.09;45144.28;5131358;27;20200;-68
2023/04/10 06:36:43;;;;;;;12.60;8.68;;;;;;;-143.84;57.71;45146.19;5131768;27;20438;-68
2023/04/10 06:39:10;;;;;;;10.23;9.00;;;;;;;-143.84;57.80;45132.84;5131696;27;20807;-69
2023/04/10 06:41:37;;;;;;;11.43;10.13;;;;;;;-143.84;57.06;45140.47;5130947;27;20994;-69
2023/04/10 06:44:11;;;;;;;13.60;9.65;;;;;;;-143.84;56.82;45144.28;5131439;27;20490;-68
2023/04/10 06:46:39;;;;;;;11.38;9.27;;;;;;;-143.84;56.79;45134.75;5131051;27;20197;-68
2023/04/10 06:49:06;;;;;;;13.38;9.70;;;;;;;-143.84;55.97;45151.91;5130787;27;20651;-68
2023/04/10 06:51:33;;;;;;;10.97;9.43;;;;;;;-143.84;56.23;45144.28;5131429;27;20650;-69
2023/04/10 06:54:02;;;;;;;9.77;8.70;;;;;;;-143.84;55.94;45134.75;5131077;27;20438;-68
2023/04/10 06:56:29;;;;;;;10.53;8.47;;;;;;;-143.84;55.99;45136.66;5130697;27;20964;-69
2023/04/10 06:58:56;;;;;;;10.37;8.93;;;;;;;-143.84;55.66;45132.84;5130304;27;20439;-68
2023/04/10 07:01:23;;;;;;;11.70;9.07;;;;;;;-143.84;54.63;45140.47;5130610;27;20485;-69
2023/04/10 07:03:50;;;;;;;10.57;9.47;;;;;;;-143.84;55.26;45119.53;5130734;27;20435;-69
2023/04/10 07:06:18;;;;;;;14.60;9.30;;;;;;;-143.84;54.89;45110.00;5130712;27;20426;-69
2023/04/10 07:08:45;;;;;;;11.50;8.50;;;;;;;-143.84;53.80;45121.44;5129943;27;20446;-68
2023/04/10 07:11:13;;;;;;;9.77;8.57;;;;;;;-143.84;53.55;45146.19;5129810;27;20447;-69
2023/04/10 07:13:40;;;;;;;10.23;8.53;;;;;;;-143.84;54.71;45125.22;5130051;27;20882;-69
2023/04/10 07:16:09;;;;;;;17.07;9.50;;;;;;;-143.84;53.58;45117.63;5129719;27;20499;-69
2023/04/10 07:18:37;;;;;;;11.70;9.57;;;;;;;-143.84;52.24;45117.63;5129708;27;20438;-68
2023/04/10 07:21:11;;;;;;;12.77;8.57;;;;;;;-143.84;52.92;45098.56;5130251;27;20509;-69
2023/04/10 07:23:39;;;;;;;14.40;8.73;;;;;;;-143.84;52.98;45106.19;5130907;27;21086;-72
2023/04/10 07:26:07;;;;;;;11.40;9.20;;;;;;;-143.84;53.42;45157.59;5130510;27;20442;-72
2023/04/10 07:28:35;;;;;;;11.43;9.30;;;;;;;-143.84;53.31;45108.09;5130464;27;20958;-72
2023/04/10 07:31:02;;;;;;;9.90;8.63;;;;;;;-143.84;52.02;45113.81;5130763;27;20441;-72
2023/04/10 07:33:30;;;;;;;9.43;8.13;;;;;;;-143.84;51.19;45127.13;5130940;27;21263;-73
2023/04/10 07:35:57;;;;;;;9.43;8.52;;;;;;;-143.84;51.40;45142.38;5130331;27;20434;-72
2023/04/10 07:38:24;;;;;;;11.73;7.73;;;;;;;-143.84;50.01;45115.72;5130213;27;20204;-73
2023/04/10 07:40:57;;;;;;;13.93;7.43;;;;;;;-143.84;49.88;45119.53;5128349;27;20593;-72
2023/04/10 07:43:24;;;;;;;8.50;7.60;;;;;;;-143.84;49.42;45110.00;5129348;27;20443;-72
2023/04/10 07:45:53;;;;;;;8.50;7.63;;;;;;;-143.84;48.14;45140.47;5129502;27;20443;-73
2023/04/10 07:48:20;;;;;;;10.30;7.87;;;;;;;-143.84;48.37;45102.38;5129208;27;20446;-73
2023/04/10 07:50:47;;;;;;;8.87;7.97;;;;;;;-143.84;49.73;45092.88;5108757;28;20450;-72
2023/04/10 07:53:14;;;;;;;17.95;7.32;;;;;;;-143.84;48.40;45102.38;5108991;28;20446;-73
2023/04/10 07:55:44;;;;;;;8.33;6.47;;;;;;;-143.84;47.28;45113.81;5109105;28;20214;-73
2023/04/10 07:58:12;;;;;;;8.40;6.87;;;;;;;-143.84;46.62;45155.69;5109407;28;20454;-73
2023/04/10 08:00:39;;;;;;;7.57;6.35;;;;;;;-143.84;46.40;45087.16;5109713;28;20438;-73
2023/04/10 08:03:07;;;;;;;8.67;6.00;;;;;;;-143.84;46.06;45106.19;5109224;28;20232;-73
2023/04/10 08:05:35;;;;;;;6.23;5.63;;;;;;;-143.84;45.96;45121.44;5109096;27;20453;-73
2023/04/10 08:08:02;;;;;;;11.67;5.90;;;;;;;-143.84;46.24;45113.81;5108387;28;20494;-73
2023/04/10 08:10:29;;;;;;;10.43;6.80;;;;;;;-143.84;45.69;45115.72;5108893;28;20435;-73
2023/04/10 08:12:56;;;;;;;19.37;6.93;;;;;;;-143.84;46.18;45125.22;5108889;28;20803;-73
2023/04/10 08:15:24;;;;;;;7.67;6.87;;;;;;;-143.84;46.55;45113.81;5108949;28;20428;-72
2023/04/10 08:17:51;;;;;;;7.77;6.90;;;;;;;-143.84;46.95;45121.44;5108523;28;21066;-73
2023/04/10 08:20:20;;;;;;;7.93;6.33;;;;;;;-143.84;46.50;45102.38;5108758;28;20442;-73
2023/04/10 08:22:47;;;;;;;11.23;7.70;;;;;;;-143.84;46.76;45089.06;5108362;28;21047;-72
2023/04/10 08:25:14;;;;;;;8.50;7.63;;;;;;;-143.84;47.29;45081.44;5108987;28;20829;-73
2023/04/10 08:27:41;;;;;;;10.83;7.37;;;;;;;-143.84;47.33;45123.34;5109197;28;20440;-73
2023/04/10 08:30:09;;;;;;;9.50;7.40;;;;;;;-143.84;46.58;45089.06;5108935;28;20440;-73
2023/04/10 08:32:36;;;;;;;11.60;8.17;;;;;;;-143.84;47.26;45113.81;5109317;28;20511;-73
2023/04/10 08:35:04;;;;;;;18.67;8.03;;;;;;;-143.84;46.78;45100.47;5109147;28;20481;-73
2023/04/10 08:37:32;;;;;;;10.07;8.27;;;;;;;-143.84;47.18;45110.00;5109304;28;20439;-73
2023/04/10 08:40:00;;;;;;;8.43;7.63;;;;;;;-143.84;46.09;45096.66;5109072;28;20558;-71
2023/04/10 08:42:27;;;;;;;13.00;8.40;;;;;;;-143.84;45.91;45092.88;5109205;28;20483;-71
2023/04/10 08:44:54;;;;;;;11.30;8.10;;;;;;;-143.84;46.28;45130.94;5109049;28;20495;-71
2023/04/10 08:47:24;;;;;;;11.70;8.50;;;;;;;-143.84;46.05;45117.63;5108722;28;20439;-71
2023/04/10 08:49:55;;;;;;;10.83;7.33;;;;;;;-143.84;46.04;45106.19;5108742;28;20455;-71
2023/04/10 08:52:25;;;;;;;11.80;9.00;;;;;;;-143.84;46.42;45075.72;5111021;28;20443;-71
2023/04/10 08:54:57;;;;;;;10.53;8.80;;;;;;;-143.84;47.59;45094.78;5113104;28;20208;-71
2023/04/10 08:57:26;;;;;;;9.18;8.25;;;;;;;-143.84;46.99;45096.66;5112788;28;20444;-71
2023/04/10 08:59:53;;;;;;;11.80;8.87;;;;;;;-143.84;47.19;45087.16;5112867;28;20232;-71
2023/04/10 09:02:22;;;;;;;12.30;9.37;;;;;;;-143.84;47.62;45106.19;5112569;28;21022;-71
2023/04/10 09:04:53;;;;;;;10.83;9.03;;;;;;;-143.84;47.70;45106.19;5112318;28;20438;-71
2023/04/10 09:07:21;;;;;;;14.40;8.20;;;;;;;-143.84;47.79;45096.66;5112262;28;20973;-71
2023/04/10 09:09:49;;;;;;;14.67;9.23;;;;;;;-143.84;47.83;45083.34;5112387;28;20431;-71
2023/04/10 09:12:17;;;;;;;15.02;9.70;;;;;;;-143.84;48.06;45098.56;5112492;28;20881;-71
2023/04/10 09:14:45;;;;;;;11.03;9.77;;;;;;;-143.84;48.17;45089.06;5112489;28;20205;-70
2023/04/10 09:17:14;;;;;;;12.43;9.80;;;;;;;-143.84;48.27;45115.72;5112500;28;20554;-71
2023/04/10 09:19:42;;;;;;;15.33;9.30;;;;;;;-143.84;49.27;45087.16;5112288;28;20943;-71
2023/04/10 09:22:09;;;;;;;11.90;9.70;;;;;;;-143.84;49.20;45106.19;5112644;28;20838;-72
2023/04/10 09:24:38;;;;;;;10.10;8.47;;;;;;;-143.84;48.45;45102.38;5112353;28;20945;-72
2023/04/10 09:27:05;;;;;;;13.48;8.85;;;;;;;-143.84;49.72;45096.66;5111281;28;20883;-73
2023/04/10 09:29:47;;;;;;;8.10;7.13;;;;;;;-143.84;49.03;45121.44;5111140;28;20195;-73
2023/04/10 09:32:14;;;;;;;11.40;8.37;;;;;;;-143.84;48.45;45110.00;5111544;28;20447;-73
2023/04/10 09:34:57;;;;;;;8.27;7.20;;;;;;;-143.84;49.00;45094.78;5111976;28;20491;-73
2023/04/10 09:37:32;;;;;;;10.40;7.63;;;;;;;-143.84;49.40;45083.34;5112297;28;21219;-73
2023/04/10 09:39:59;;;;;;;8.48;7.68;;;;;;;-143.84;49.32;45115.72;5111785;28;20998;-74
2023/04/10 09:42:31;;;;;;;11.30;8.27;;;;;;;-143.84;49.05;45098.56;5111807;28;20318;-72
2023/04/10 09:45:00;;;;;;;7.67;6.90;;;;;;;-143.84;50.39;45117.63;5111833;28;20446;-73
2023/04/10 09:47:28;;;;;;;9.90;6.97;;;;;;;-143.84;50.55;45119.53;5111691;28;20469;-73
2023/04/10 09:49:56;;;;;;;11.53;7.60;;;;;;;-143.84;50.12;45144.28;5111769;28;20436;-73
2023/04/10 09:52:25;;;;;;;17.63;7.43;;;;;;;-143.84;50.28;45110.00;5111710;28;20496;-73
2023/04/10 09:54:54;;;;;;;9.07;7.13;;;;;;;-143.84;49.67;45108.09;5111516;28;20511;-73
2023/04/10 09:57:23;;;;;;;7.80;7.00;;;;;;;-143.84;50.77;45075.72;5111899;28;20455;-73
2023/04/10 09:59:52;;;;;;;7.80;6.90;;;;;;;-143.84;49.86;45106.19;5111557;28;20447;-73
2023/04/10 10:02:22;;;;;;;12.97;7.87;;;;;;;-143.84;50.71;45108.09;5111574;28;20479;-73
2023/04/10 10:04:51;;;;;;;13.27;6.63;;;;;;;-143.84;48.79;45104.28;5110682;28;20520;-73
2023/04/10 10:07:19;;;;;;;6.83;6.20;;;;;;;-143.84;49.59;45129.03;5111563;28;20200;-73
2023/04/10 10:09:48;;;;;;;11.60;6.73;;;;;;;-143.84;49.28;45104.28;5111693;28;20443;-73
2023/04/10 10:12:19;;;;;;;14.97;6.77;;;;;;;-143.84;49.74;45115.72;5111227;28;20442;-73
2023/04/10 10:14:51;;;;;;;8.80;6.70;;;;;;;-143.84;49.85;45100.47;5111658;28;20439;-73
2023/04/10 10:17:24;;;;;;;11.47;8.27;;;;;;;-143.84;50.14;45092.88;5111428;28;20438;-73
2023/04/10 10:19:57;;;;;;;9.33;7.93;;;;;;;-143.84;50.55;45089.06;5111500;28;20438;-73
2023/04/10 10:22:27;;;;;;;11.30;6.97;;;;;;;-143.84;51.30;45079.53;5111197;27;20486;-73
2023/04/10 10:24:56;;;;;;;14.67;7.50;;;;;;;-143.84;51.31;45094.78;5111174;28;20491;-72
2023/04/10 10:27:25;;;;;;;10.50;7.70;;;;;;;-143.84;51.33;45098.56;5111258;28;20471;-73
2023/04/10 10:29:54;;;;;;;7.43;6.63;;;;;;;-143.84;51.94;45104.28;5111122;28;20436;-73
2023/04/10 10:32:24;;;;;;;7.73;6.80;;;;;;;-143.84;51.87;45094.78;5111828;28;20448;-73
2023/04/10 10:34:53;;;;;;;7.73;6.57;;;;;;;-143.84;51.06;45161.41;5110876;28;20492;-72
2023/04/10 10:37:21;;;;;;;13.50;6.85;;;;;;;-143.84;51.25;45075.72;5110689;28;20443;-73
2023/04/10 10:40:00;;;;;;;6.57;5.80;;;;;;;-143.84;51.02;45102.38;5109961;28;20189;-73
2023/04/10 10:42:34;;;;;;;6.87;6.10;;;;;;;-143.84;50.22;45108.09;5110247;28;20540;-74
2023/04/10 10:45:10;;;;;;;15.27;7.83;;;;;;;-143.84;50.95;45115.72;5111054;28;20439;-73
2023/04/10 10:47:46;;;;;;;10.80;6.20;;;;;;;-143.84;51.81;45102.38;5110796;28;20449;-73
2023/04/10 10:50:13;;;;;;;9.57;6.00;;;;;;;-143.84;51.05;45098.56;5110681;28;20448;-73
2023/04/10 10:52:42;;;;;;;5.72;5.13;;;;;;;-143.84;52.15;45108.09;5109949;28;20945;-73
2023/04/10 10:55:31;;;;;;;7.80;7.00;;;;;;;-143.84;51.84;45098.56;5109670;28;20197;-73
2023/04/10 10:58:01;;;;;;;7.50;6.67;;;;;;;-143.84;52.58;45111.91;5109801;28;20510;-73
2023/04/10 11:01:17;;;;;;;6.23;5.67;;;;;;;-143.84;52.27;45106.19;5110297;28;20498;-73
2023/04/10 11:03:46;;;;;;;8.30;6.13;;;;;;;-143.84;50.83;45083.34;5110348;28;20571;-73
2023/04/10 11:06:19;;;;;;;6.03;5.53;;;;;;;-143.84;49.68;45092.88;5110463;28;20200;-73
2023/04/10 11:08:47;;;;;;;6.83;6.20;;;;;;;-143.84;49.54;45113.81;5110112;28;20443;-73
2023/04/10 11:11:17;;;;;;;8.07;6.03;;;;;;;-143.84;47.99;45090.97;5110019;28;20556;-73
2023/04/10 11:14:16;;;;;;;8.30;5.30;;;;;;;-143.84;48.87;45085.25;5110338;28;20439;-73
2023/04/10 11:16:46;;;;;;;16.60;6.27;;;;;;;-143.84;49.57;45071.91;5110232;28;20453;-73
2023/04/10 11:19:16;;;;;;;5.40;5.00;;;;;;;-143.84;49.11;45113.81;5109984;28;20823;-73
2023/04/10 11:22:02;;;;;;;7.77;5.90;;;;;;;-143.84;49.24;45056.69;5110170;28;20451;-73